sensor_id;sensor_type;location;lat;lon;timestamp;temperature;humidity
20568;DHT22;10442;49.932;11.592;2022-11-20T00:01:27;0.60;75.70
20568;DHT22;10442;49.932;11.592;2022-11-20T00:03:56;0.60;76.00
20568;DHT22;10442;49.932;11.592;2022-11-20T00:06:26;0.60;76.30
20568;DHT22;10442;49.932;11.592;2022-11-20T00:08:56;0.60;76.30
20568;DHT22;10442;49.932;11.592;2022-11-20T00:11:25;0.60;76.10
20568;DHT22;10442;49.932;11.592;2022-11-20T00:13:56;0.60;76.00
20568;DHT22;10442;49.932;11.592;2022-11-20T00:16:28;0.60;76.10
20568;DHT22;10442;49.932;11.592;2022-11-20T00:18:56;0.60;76.30
20568;DHT22;10442;49.932;11.592;2022-11-20T00:21:28;0.60;76.30
20568;DHT22;10442;49.932;11.592;2022-11-20T00:23:56;0.60;76.30
20568;DHT22;10442;49.932;11.592;2022-11-20T00:26:25;0.70;76.20
20568;DHT22;10442;49.932;11.592;2022-11-20T00:28:58;0.60;76.20
20568;DHT22;10442;49.932;11.592;2022-11-20T00:31:26;0.60;75.80
20568;DHT22;10442;49.932;11.592;2022-11-20T00:33:54;0.70;76.50
20568;DHT22;10442;49.932;11.592;2022-11-20T00:36:25;0.60;76.40
20568;DHT22;10442;49.932;11.592;2022-11-20T00:38:57;0.60;76.40
20568;DHT22;10442;49.932;11.592;2022-11-20T00:41:26;0.70;76.30
20568;DHT22;10442;49.932;11.592;2022-11-20T00:43:55;0.70;76.20
20568;DHT22;10442;49.932;11.592;2022-11-20T00:46:25;0.70;76.10
20568;DHT22;10442;49.932;11.592;2022-11-20T00:48:53;0.60;76.10
20568;DHT22;10442;49.932;11.592;2022-11-20T00:51:23;0.60;76.10
20568;DHT22;10442;49.932;11.592;2022-11-20T00:53:51;0.60;76.20
20568;DHT22;10442;49.932;11.592;2022-11-20T00:56:19;0.60;76.30
20568;DHT22;10442;49.932;11.592;2022-11-20T00:58:48;0.60;76.30
20568;DHT22;10442;49.932;11.592;2022-11-20T01:01:24;0.60;76.50
20568;DHT22;10442;49.932;11.592;2022-11-20T01:03:53;0.60;76.60
20568;DHT22;10442;49.932;11.592;2022-11-20T01:06:27;0.70;76.90
20568;DHT22;10442;49.932;11.592;2022-11-20T01:08:57;0.70;77.00
20568;DHT22;10442;49.932;11.592;2022-11-20T01:11:27;0.70;77.10
20568;DHT22;10442;49.932;11.592;2022-11-20T01:13:56;0.80;77.30
20568;DHT22;10442;49.932;11.592;2022-11-20T01:16:36;0.80;77.50
20568;DHT22;10442;49.932;11.592;2022-11-20T01:19:05;0.90;77.80
20568;DHT22;10442;49.932;11.592;2022-11-20T01:21:35;1.00;77.90
20568;DHT22;10442;49.932;11.592;2022-11-20T01:24:04;1.10;77.90
20568;DHT22;10442;49.932;11.592;2022-11-20T01:26:34;1.10;77.70
20568;DHT22;10442;49.932;11.592;2022-11-20T01:29:03;1.20;77.50
20568;DHT22;10442;49.932;11.592;2022-11-20T01:31:34;1.20;77.10
20568;DHT22;10442;49.932;11.592;2022-11-20T01:34:14;1.20;76.70
20568;DHT22;10442;49.932;11.592;2022-11-20T01:36:43;1.20;76.40
20568;DHT22;10442;49.932;11.592;2022-11-20T01:39:16;1.20;76.40
20568;DHT22;10442;49.932;11.592;2022-11-20T01:41:46;1.20;76.50
20568;DHT22;10442;49.932;11.592;2022-11-20T01:44:52;1.20;76.50
20568;DHT22;10442;49.932;11.592;2022-11-20T01:47:24;1.30;76.60
20568;DHT22;10442;49.932;11.592;2022-11-20T01:49:58;1.30;76.60
20568;DHT22;10442;49.932;11.592;2022-11-20T01:52:33;1.30;76.60
20568;DHT22;10442;49.932;11.592;2022-11-20T01:57:34;1.40;76.50
20568;DHT22;10442;49.932;11.592;2022-11-20T02:00:10;1.50;76.50
20568;DHT22;10442;49.932;11.592;2022-11-20T02:02:59;1.50;76.40
20568;DHT22;10442;49.932;11.592;2022-11-20T02:08:00;1.60;76.40
20568;DHT22;10442;49.932;11.592;2022-11-20T02:10:29;1.60;76.30
20568;DHT22;10442;49.932;11.592;2022-11-20T02:12:57;1.60;76.10
20568;DHT22;10442;49.932;11.592;2022-11-20T02:15:44;1.60;75.90
20568;DHT22;10442;49.932;11.592;2022-11-20T02:18:14;1.60;75.90
20568;DHT22;10442;49.932;11.592;2022-11-20T02:20:44;1.60;76.00
20568;DHT22;10442;49.932;11.592;2022-11-20T02:25:45;1.70;76.10
20568;DHT22;10442;49.932;11.592;2022-11-20T02:28:15;1.70;76.00
20568;DHT22;10442;49.932;11.592;2022-11-20T02:30:42;1.70;76.20
20568;DHT22;10442;49.932;11.592;2022-11-20T02:33:10;1.70;76.10
20568;DHT22;10442;49.932;11.592;2022-11-20T02:35:42;1.80;76.00
20568;DHT22;10442;49.932;11.592;2022-11-20T02:38:10;1.80;75.90
20568;DHT22;10442;49.932;11.592;2022-11-20T02:40:37;1.80;75.90
20568;DHT22;10442;49.932;11.592;2022-11-20T02:43:05;1.80;75.80
20568;DHT22;10442;49.932;11.592;2022-11-20T02:45:33;1.90;76.00
20568;DHT22;10442;49.932;11.592;2022-11-20T02:48:00;1.90;76.00
20568;DHT22;10442;49.932;11.592;2022-11-20T02:50:27;1.90;75.90
20568;DHT22;10442;49.932;11.592;2022-11-20T02:52:55;1.90;75.90
20568;DHT22;10442;49.932;11.592;2022-11-20T02:55:22;2.00;75.90
20568;DHT22;10442;49.932;11.592;2022-11-20T02:57:50;2.00;75.90
20568;DHT22;10442;49.932;11.592;2022-11-20T03:00:17;2.00;75.90
20568;DHT22;10442;49.932;11.592;2022-11-20T03:02:45;2.00;76.00
20568;DHT22;10442;49.932;11.592;2022-11-20T03:05:13;2.00;76.00
20568;DHT22;10442;49.932;11.592;2022-11-20T03:07:40;2.10;76.10
20568;DHT22;10442;49.932;11.592;2022-11-20T03:10:08;2.10;76.00
20568;DHT22;10442;49.932;11.592;2022-11-20T03:12:35;2.10;75.90
20568;DHT22;10442;49.932;11.592;2022-11-20T03:15:03;2.20;75.90
20568;DHT22;10442;49.932;11.592;2022-11-20T03:17:31;2.20;75.90
20568;DHT22;10442;49.932;11.592;2022-11-20T03:19:58;2.20;75.90
20568;DHT22;10442;49.932;11.592;2022-11-20T03:22:25;2.20;76.00
20568;DHT22;10442;49.932;11.592;2022-11-20T03:24:52;2.20;76.10
20568;DHT22;10442;49.932;11.592;2022-11-20T03:27:20;2.30;76.10
20568;DHT22;10442;49.932;11.592;2022-11-20T03:29:47;2.20;76.10
20568;DHT22;10442;49.932;11.592;2022-11-20T03:32:15;2.30;76.10
20568;DHT22;10442;49.932;11.592;2022-11-20T03:34:42;2.30;76.10
20568;DHT22;10442;49.932;11.592;2022-11-20T03:37:09;2.30;76.10
20568;DHT22;10442;49.932;11.592;2022-11-20T03:39:37;2.40;76.10
20568;DHT22;10442;49.932;11.592;2022-11-20T03:42:05;2.30;76.00
20568;DHT22;10442;49.932;11.592;2022-11-20T03:44:52;2.40;76.00
20568;DHT22;10442;49.932;11.592;2022-11-20T03:47:19;2.40;75.80
20568;DHT22;10442;49.932;11.592;2022-11-20T03:49:47;2.40;75.70
20568;DHT22;10442;49.932;11.592;2022-11-20T03:52:14;2.40;76.30
20568;DHT22;10442;49.932;11.592;2022-11-20T03:54:41;2.40;75.50
20568;DHT22;10442;49.932;11.592;2022-11-20T03:57:09;2.40;75.50
20568;DHT22;10442;49.932;11.592;2022-11-20T03:59:36;2.40;75.60
20568;DHT22;10442;49.932;11.592;2022-11-20T04:02:03;2.40;75.70
20568;DHT22;10442;49.932;11.592;2022-11-20T04:04:31;2.40;75.60
20568;DHT22;10442;49.932;11.592;2022-11-20T04:06:58;2.40;75.60
20568;DHT22;10442;49.932;11.592;2022-11-20T04:09:25;2.40;75.60
20568;DHT22;10442;49.932;11.592;2022-11-20T04:11:53;2.40;75.50
20568;DHT22;10442;49.932;11.592;2022-11-20T04:14:20;2.50;75.60
20568;DHT22;10442;49.932;11.592;2022-11-20T04:16:47;2.40;75.50
20568;DHT22;10442;49.932;11.592;2022-11-20T04:19:16;2.40;75.60
20568;DHT22;10442;49.932;11.592;2022-11-20T04:21:44;2.40;75.60
20568;DHT22;10442;49.932;11.592;2022-11-20T04:24:11;2.50;75.80
20568;DHT22;10442;49.932;11.592;2022-11-20T04:26:39;2.50;75.90
20568;DHT22;10442;49.932;11.592;2022-11-20T04:29:10;2.50;75.90
20568;DHT22;10442;49.932;11.592;2022-11-20T04:31:38;2.50;76.00
20568;DHT22;10442;49.932;11.592;2022-11-20T04:34:07;2.50;76.00
20568;DHT22;10442;49.932;11.592;2022-11-20T04:36:34;2.50;75.90
20568;DHT22;10442;49.932;11.592;2022-11-20T04:39:04;2.50;75.80
20568;DHT22;10442;49.932;11.592;2022-11-20T04:41:34;2.50;75.80
20568;DHT22;10442;49.932;11.592;2022-11-20T04:44:03;2.50;75.90
20568;DHT22;10442;49.932;11.592;2022-11-20T04:46:36;2.50;75.90
20568;DHT22;10442;49.932;11.592;2022-11-20T04:49:04;2.50;76.00
20568;DHT22;10442;49.932;11.592;2022-11-20T04:51:32;2.60;76.20
20568;DHT22;10442;49.932;11.592;2022-11-20T04:54:00;2.60;76.30
20568;DHT22;10442;49.932;11.592;2022-11-20T04:56:28;2.60;76.30
20568;DHT22;10442;49.932;11.592;2022-11-20T04:58:55;2.60;76.30
20568;DHT22;10442;49.932;11.592;2022-11-20T05:01:24;2.70;76.40
20568;DHT22;10442;49.932;11.592;2022-11-20T05:03:51;2.70;76.40
20568;DHT22;10442;49.932;11.592;2022-11-20T05:06:20;2.70;76.40
20568;DHT22;10442;49.932;11.592;2022-11-20T05:08:48;2.70;76.50
20568;DHT22;10442;49.932;11.592;2022-11-20T05:11:18;2.80;76.50
20568;DHT22;10442;49.932;11.592;2022-11-20T05:13:46;2.80;76.40
20568;DHT22;10442;49.932;11.592;2022-11-20T05:16:22;2.80;76.40
20568;DHT22;10442;49.932;11.592;2022-11-20T05:18:51;2.80;76.30
20568;DHT22;10442;49.932;11.592;2022-11-20T05:21:19;2.80;76.30
20568;DHT22;10442;49.932;11.592;2022-11-20T05:23:46;2.90;76.40
20568;DHT22;10442;49.932;11.592;2022-11-20T05:26:21;2.90;76.50
20568;DHT22;10442;49.932;11.592;2022-11-20T05:28:49;2.90;76.50
20568;DHT22;10442;49.932;11.592;2022-11-20T05:31:20;2.90;76.50
20568;DHT22;10442;49.932;11.592;2022-11-20T05:33:54;2.90;76.60
20568;DHT22;10442;49.932;11.592;2022-11-20T05:36:21;3.00;76.60
20568;DHT22;10442;49.932;11.592;2022-11-20T05:38:49;3.00;76.70
20568;DHT22;10442;49.932;11.592;2022-11-20T05:41:19;3.00;76.70
20568;DHT22;10442;49.932;11.592;2022-11-20T05:43:48;3.00;76.70
20568;DHT22;10442;49.932;11.592;2022-11-20T05:46:18;3.00;76.70
20568;DHT22;10442;49.932;11.592;2022-11-20T05:48:54;3.00;76.60
20568;DHT22;10442;49.932;11.592;2022-11-20T05:51:23;3.10;76.80
20568;DHT22;10442;49.932;11.592;2022-11-20T05:53:50;3.10;76.80
20568;DHT22;10442;49.932;11.592;2022-11-20T05:56:19;3.10;76.90
20568;DHT22;10442;49.932;11.592;2022-11-20T05:58:47;3.10;77.00
20568;DHT22;10442;49.932;11.592;2022-11-20T06:01:21;3.10;76.90
20568;DHT22;10442;49.932;11.592;2022-11-20T06:03:49;3.10;76.80
20568;DHT22;10442;49.932;11.592;2022-11-20T06:06:18;3.20;76.90
20568;DHT22;10442;49.932;11.592;2022-11-20T06:08:46;3.20;76.80
20568;DHT22;10442;49.932;11.592;2022-11-20T06:11:14;3.20;76.70
20568;DHT22;10442;49.932;11.592;2022-11-20T06:13:42;3.20;76.70
20568;DHT22;10442;49.932;11.592;2022-11-20T06:16:10;3.20;76.70
20568;DHT22;10442;49.932;11.592;2022-11-20T06:18:39;3.30;76.80
20568;DHT22;10442;49.932;11.592;2022-11-20T06:21:09;3.30;76.80
20568;DHT22;10442;49.932;11.592;2022-11-20T06:23:37;3.30;76.80
20568;DHT22;10442;49.932;11.592;2022-11-20T06:26:06;3.30;76.90
20568;DHT22;10442;49.932;11.592;2022-11-20T06:28:34;3.30;76.90
20568;DHT22;10442;49.932;11.592;2022-11-20T06:31:02;3.30;76.90
20568;DHT22;10442;49.932;11.592;2022-11-20T06:33:30;3.40;77.00
20568;DHT22;10442;49.932;11.592;2022-11-20T06:35:58;3.40;77.00
20568;DHT22;10442;49.932;11.592;2022-11-20T06:38:33;3.40;76.90
20568;DHT22;10442;49.932;11.592;2022-11-20T06:41:00;3.40;76.90
20568;DHT22;10442;49.932;11.592;2022-11-20T06:43:28;3.50;76.90
20568;DHT22;10442;49.932;11.592;2022-11-20T06:45:58;3.50;76.90
20568;DHT22;10442;49.932;11.592;2022-11-20T06:48:26;3.50;76.90
20568;DHT22;10442;49.932;11.592;2022-11-20T06:50:55;3.50;76.70
20568;DHT22;10442;49.932;11.592;2022-11-20T06:53:23;3.50;76.70
20568;DHT22;10442;49.932;11.592;2022-11-20T06:55:51;3.50;76.60
20568;DHT22;10442;49.932;11.592;2022-11-20T06:58:19;3.60;76.60
20568;DHT22;10442;49.932;11.592;2022-11-20T07:00:46;3.60;76.60
20568;DHT22;10442;49.932;11.592;2022-11-20T07:03:14;3.60;76.60
20568;DHT22;10442;49.932;11.592;2022-11-20T07:05:41;3.60;76.70
20568;DHT22;10442;49.932;11.592;2022-11-20T07:08:08;3.60;76.60
20568;DHT22;10442;49.932;11.592;2022-11-20T07:10:36;3.60;76.50
20568;DHT22;10442;49.932;11.592;2022-11-20T07:13:04;3.60;76.50
20568;DHT22;10442;49.932;11.592;2022-11-20T07:15:31;3.70;76.50
20568;DHT22;10442;49.932;11.592;2022-11-20T07:17:59;3.70;76.50
20568;DHT22;10442;49.932;11.592;2022-11-20T07:20:27;3.70;76.40
20568;DHT22;10442;49.932;11.592;2022-11-20T07:22:56;3.70;76.40
20568;DHT22;10442;49.932;11.592;2022-11-20T07:25:25;3.70;76.30
20568;DHT22;10442;49.932;11.592;2022-11-20T07:28:00;3.70;76.30
20568;DHT22;10442;49.932;11.592;2022-11-20T07:30:28;3.80;76.30
20568;DHT22;10442;49.932;11.592;2022-11-20T07:32:56;3.80;76.10
20568;DHT22;10442;49.932;11.592;2022-11-20T07:35:24;3.80;76.00
20568;DHT22;10442;49.932;11.592;2022-11-20T07:37:52;3.80;76.00
20568;DHT22;10442;49.932;11.592;2022-11-20T07:40:20;3.80;75.90
20568;DHT22;10442;49.932;11.592;2022-11-20T07:42:52;3.80;75.90
20568;DHT22;10442;49.932;11.592;2022-11-20T07:45:21;3.80;75.90
20568;DHT22;10442;49.932;11.592;2022-11-20T07:47:49;3.80;75.90
20568;DHT22;10442;49.932;11.592;2022-11-20T07:50:17;3.90;75.90
20568;DHT22;10442;49.932;11.592;2022-11-20T07:52:44;3.90;75.90
20568;DHT22;10442;49.932;11.592;2022-11-20T07:55:12;3.90;76.10
20568;DHT22;10442;49.932;11.592;2022-11-20T07:57:39;4.00;76.30
20568;DHT22;10442;49.932;11.592;2022-11-20T08:00:09;4.00;76.40
20568;DHT22;10442;49.932;11.592;2022-11-20T08:02:40;4.00;76.30
20568;DHT22;10442;49.932;11.592;2022-11-20T08:05:09;4.10;76.30
20568;DHT22;10442;49.932;11.592;2022-11-20T08:07:41;4.10;76.10
20568;DHT22;10442;49.932;11.592;2022-11-20T08:10:11;4.20;76.10
20568;DHT22;10442;49.932;11.592;2022-11-20T08:12:47;4.20;76.00
20568;DHT22;10442;49.932;11.592;2022-11-20T08:15:33;4.30;75.90
20568;DHT22;10442;49.932;11.592;2022-11-20T08:18:09;4.30;75.80
20568;DHT22;10442;49.932;11.592;2022-11-20T08:20:58;4.40;75.40
20568;DHT22;10442;49.932;11.592;2022-11-20T08:23:28;4.40;75.10
20568;DHT22;10442;49.932;11.592;2022-11-20T08:25:55;4.50;75.10
20568;DHT22;10442;49.932;11.592;2022-11-20T08:28:24;4.50;75.00
20568;DHT22;10442;49.932;11.592;2022-11-20T08:31:00;4.50;75.00
20568;DHT22;10442;49.932;11.592;2022-11-20T08:33:29;4.50;75.00
20568;DHT22;10442;49.932;11.592;2022-11-20T08:36:03;4.60;75.20
20568;DHT22;10442;49.932;11.592;2022-11-20T08:38:31;4.60;75.30
20568;DHT22;10442;49.932;11.592;2022-11-20T08:41:00;4.60;75.20
20568;DHT22;10442;49.932;11.592;2022-11-20T08:43:46;4.60;75.20
20568;DHT22;10442;49.932;11.592;2022-11-20T08:46:14;4.70;75.30
20568;DHT22;10442;49.932;11.592;2022-11-20T08:48:41;4.70;75.00
20568;DHT22;10442;49.932;11.592;2022-11-20T08:51:10;4.70;74.90
20568;DHT22;10442;49.932;11.592;2022-11-20T08:53:38;4.80;75.00
20568;DHT22;10442;49.932;11.592;2022-11-20T08:56:06;4.80;74.90
20568;DHT22;10442;49.932;11.592;2022-11-20T08:58:34;4.90;75.00
20568;DHT22;10442;49.932;11.592;2022-11-20T09:01:22;4.90;74.90
20568;DHT22;10442;49.932;11.592;2022-11-20T09:03:50;4.90;74.70
20568;DHT22;10442;49.932;11.592;2022-11-20T09:06:18;4.90;74.80
20568;DHT22;10442;49.932;11.592;2022-11-20T09:08:45;5.00;74.80
20568;DHT22;10442;49.932;11.592;2022-11-20T09:11:13;5.00;74.70
20568;DHT22;10442;49.932;11.592;2022-11-20T09:13:40;5.10;74.70
20568;DHT22;10442;49.932;11.592;2022-11-20T09:16:08;5.10;74.50
20568;DHT22;10442;49.932;11.592;2022-11-20T09:18:36;5.10;74.40
20568;DHT22;10442;49.932;11.592;2022-11-20T09:21:08;5.20;74.30
20568;DHT22;10442;49.932;11.592;2022-11-20T09:23:38;5.20;74.20
20568;DHT22;10442;49.932;11.592;2022-11-20T09:26:10;5.30;74.20
20568;DHT22;10442;49.932;11.592;2022-11-20T09:28:38;5.30;74.10
20568;DHT22;10442;49.932;11.592;2022-11-20T09:31:17;5.30;74.00
20568;DHT22;10442;49.932;11.592;2022-11-20T09:33:46;5.30;74.00
20568;DHT22;10442;49.932;11.592;2022-11-20T09:36:14;5.30;73.90
20568;DHT22;10442;49.932;11.592;2022-11-20T09:38:41;5.30;73.80
20568;DHT22;10442;49.932;11.592;2022-11-20T09:55:16;5.20;74.00
20568;DHT22;10442;49.932;11.592;2022-11-20T09:57:46;5.10;73.80
20568;DHT22;10442;49.932;11.592;2022-11-20T10:00:15;5.00;73.90
20568;DHT22;10442;49.932;11.592;2022-11-20T10:05:26;4.90;74.20
20568;DHT22;10442;49.932;11.592;2022-11-20T10:10:46;4.90;74.80
20568;DHT22;10442;49.932;11.592;2022-11-20T10:13:32;4.90;75.00
20568;DHT22;10442;49.932;11.592;2022-11-20T10:16:13;4.80;75.10
20568;DHT22;10442;49.932;11.592;2022-11-20T10:18:57;4.90;75.40
20568;DHT22;10442;49.932;11.592;2022-11-20T10:27:30;5.10;75.90
20568;DHT22;10442;49.932;11.592;2022-11-20T10:30:10;5.20;76.10
20568;DHT22;10442;49.932;11.592;2022-11-20T10:32:41;5.30;75.70
20568;DHT22;10442;49.932;11.592;2022-11-20T10:35:35;5.40;75.50
20568;DHT22;10442;49.932;11.592;2022-11-20T10:38:16;5.40;75.10
20568;DHT22;10442;49.932;11.592;2022-11-20T10:40:51;5.50;74.90
20568;DHT22;10442;49.932;11.592;2022-11-20T10:43:28;5.50;74.90
20568;DHT22;10442;49.932;11.592;2022-11-20T10:46:03;5.50;74.90
20568;DHT22;10442;49.932;11.592;2022-11-20T10:48:32;5.50;75.00
20568;DHT22;10442;49.932;11.592;2022-11-20T10:59:07;5.60;74.90
20568;DHT22;10442;49.932;11.592;2022-11-20T11:01:41;5.60;75.10
20568;DHT22;10442;49.932;11.592;2022-11-20T11:06:58;5.70;75.00
20568;DHT22;10442;49.932;11.592;2022-11-20T11:09:34;5.70;75.00
20568;DHT22;10442;49.932;11.592;2022-11-20T11:12:08;5.70;74.90
20568;DHT22;10442;49.932;11.592;2022-11-20T11:14:51;5.80;74.80
20568;DHT22;10442;49.932;11.592;2022-11-20T11:17:28;5.80;74.90
20568;DHT22;10442;49.932;11.592;2022-11-20T11:25:35;6.00;74.90
20568;DHT22;10442;49.932;11.592;2022-11-20T11:30:44;6.00;74.80
20568;DHT22;10442;49.932;11.592;2022-11-20T11:33:20;6.00;74.70
20568;DHT22;10442;49.932;11.592;2022-11-20T11:35:50;6.10;74.60
20568;DHT22;10442;49.932;11.592;2022-11-20T11:38:35;6.10;74.60
20568;DHT22;10442;49.932;11.592;2022-11-20T11:41:05;6.10;74.70
20568;DHT22;10442;49.932;11.592;2022-11-20T11:43:35;6.10;74.80
20568;DHT22;10442;49.932;11.592;2022-11-20T11:46:30;6.10;74.90
20568;DHT22;10442;49.932;11.592;2022-11-20T11:49:15;6.10;74.80
20568;DHT22;10442;49.932;11.592;2022-11-20T11:52:03;6.10;74.70
20568;DHT22;10442;49.932;11.592;2022-11-20T11:54:43;6.10;74.60
20568;DHT22;10442;49.932;11.592;2022-11-20T12:08:17;6.10;74.40
20568;DHT22;10442;49.932;11.592;2022-11-20T12:10:45;6.10;74.50
20568;DHT22;10442;49.932;11.592;2022-11-20T12:16:04;6.10;74.50
20568;DHT22;10442;49.932;11.592;2022-11-20T12:18:31;6.10;74.40
20568;DHT22;10442;49.932;11.592;2022-11-20T12:24:10;6.20;74.40
20568;DHT22;10442;49.932;11.592;2022-11-20T12:41:20;6.50;74.70
20568;DHT22;10442;49.932;11.592;2022-11-20T12:44:49;6.50;74.70
20568;DHT22;10442;49.932;11.592;2022-11-20T12:47:59;6.60;74.50
20568;DHT22;10442;49.932;11.592;2022-11-20T12:53:50;6.70;74.50
20568;DHT22;10442;49.932;11.592;2022-11-20T13:08:00;6.80;74.00
20568;DHT22;10442;49.932;11.592;2022-11-20T13:16:24;6.70;74.20
20568;DHT22;10442;49.932;11.592;2022-11-20T13:18:53;6.70;74.40
20568;DHT22;10442;49.932;11.592;2022-11-20T13:21:35;6.70;74.60
20568;DHT22;10442;49.932;11.592;2022-11-20T13:24:05;6.70;74.70
20568;DHT22;10442;49.932;11.592;2022-11-20T13:26:33;6.60;74.80
20568;DHT22;10442;49.932;11.592;2022-11-20T13:29:11;6.60;74.90
20568;DHT22;10442;49.932;11.592;2022-11-20T13:31:47;6.60;75.00
20568;DHT22;10442;49.932;11.592;2022-11-20T13:34:26;6.70;75.90
20568;DHT22;10442;49.932;11.592;2022-11-20T13:36:55;6.70;75.20
20568;DHT22;10442;49.932;11.592;2022-11-20T13:39:28;6.70;75.10
20568;DHT22;10442;49.932;11.592;2022-11-20T13:41:58;6.70;75.00
20568;DHT22;10442;49.932;11.592;2022-11-20T13:44:38;6.60;74.80
20568;DHT22;10442;49.932;11.592;2022-11-20T13:47:25;6.60;74.70
20568;DHT22;10442;49.932;11.592;2022-11-20T13:49:57;6.60;75.00
20568;DHT22;10442;49.932;11.592;2022-11-20T13:55:33;6.50;75.20
20568;DHT22;10442;49.932;11.592;2022-11-20T14:00:51;6.50;75.30
20568;DHT22;10442;49.932;11.592;2022-11-20T14:03:23;6.40;75.40
20568;DHT22;10442;49.932;11.592;2022-11-20T14:06:18;6.50;75.40
20568;DHT22;10442;49.932;11.592;2022-11-20T14:08:49;6.40;75.50
20568;DHT22;10442;49.932;11.592;2022-11-20T14:13:57;6.40;75.60
20568;DHT22;10442;49.932;11.592;2022-11-20T14:16:27;6.40;75.60
20568;DHT22;10442;49.932;11.592;2022-11-20T14:18:56;6.40;75.70
20568;DHT22;10442;49.932;11.592;2022-11-20T14:21:29;6.30;75.80
20568;DHT22;10442;49.932;11.592;2022-11-20T14:24:04;6.30;75.80
20568;DHT22;10442;49.932;11.592;2022-11-20T14:26:32;6.30;75.80
20568;DHT22;10442;49.932;11.592;2022-11-20T14:29:01;6.30;75.80
20568;DHT22;10442;49.932;11.592;2022-11-20T14:31:28;6.30;75.90
20568;DHT22;10442;49.932;11.592;2022-11-20T14:33:56;6.30;76.00
20568;DHT22;10442;49.932;11.592;2022-11-20T14:36:25;6.30;76.10
20568;DHT22;10442;49.932;11.592;2022-11-20T14:38:52;6.30;76.00
20568;DHT22;10442;49.932;11.592;2022-11-20T14:41:22;6.30;76.10
20568;DHT22;10442;49.932;11.592;2022-11-20T14:43:56;6.30;76.10
20568;DHT22;10442;49.932;11.592;2022-11-20T14:46:25;6.30;76.10
20568;DHT22;10442;49.932;11.592;2022-11-20T14:48:57;6.30;76.10
20568;DHT22;10442;49.932;11.592;2022-11-20T14:51:38;6.30;76.10
20568;DHT22;10442;49.932;11.592;2022-11-20T14:54:16;6.20;76.10
20568;DHT22;10442;49.932;11.592;2022-11-20T14:56:58;6.20;76.10
20568;DHT22;10442;49.932;11.592;2022-11-20T14:59:27;6.20;76.20
20568;DHT22;10442;49.932;11.592;2022-11-20T15:02:05;6.20;76.20
20568;DHT22;10442;49.932;11.592;2022-11-20T15:04:32;6.20;76.20
20568;DHT22;10442;49.932;11.592;2022-11-20T15:07:00;6.20;76.20
20568;DHT22;10442;49.932;11.592;2022-11-20T15:09:27;6.20;76.30
20568;DHT22;10442;49.932;11.592;2022-11-20T15:11:59;6.30;76.40
20568;DHT22;10442;49.932;11.592;2022-11-20T15:14:28;6.10;76.30
20568;DHT22;10442;49.932;11.592;2022-11-20T15:16:56;6.10;76.30
20568;DHT22;10442;49.932;11.592;2022-11-20T15:19:25;6.10;76.40
20568;DHT22;10442;49.932;11.592;2022-11-20T15:21:53;6.10;77.20
20568;DHT22;10442;49.932;11.592;2022-11-20T15:24:20;6.10;76.50
20568;DHT22;10442;49.932;11.592;2022-11-20T15:26:48;6.10;76.50
20568;DHT22;10442;49.932;11.592;2022-11-20T15:29:16;6.10;76.50
20568;DHT22;10442;49.932;11.592;2022-11-20T15:31:45;6.10;76.50
20568;DHT22;10442;49.932;11.592;2022-11-20T15:34:16;6.10;76.50
20568;DHT22;10442;49.932;11.592;2022-11-20T15:36:44;6.10;76.50
20568;DHT22;10442;49.932;11.592;2022-11-20T15:39:11;6.10;76.50
20568;DHT22;10442;49.932;11.592;2022-11-20T15:41:39;6.10;76.50
20568;DHT22;10442;49.932;11.592;2022-11-20T15:44:07;6.10;76.50
20568;DHT22;10442;49.932;11.592;2022-11-20T15:46:40;6.10;76.60
20568;DHT22;10442;49.932;11.592;2022-11-20T15:49:13;6.10;76.50
20568;DHT22;10442;49.932;11.592;2022-11-20T15:51:43;6.10;76.40
20568;DHT22;10442;49.932;11.592;2022-11-20T15:54:16;6.10;76.30
20568;DHT22;10442;49.932;11.592;2022-11-20T15:56:46;6.10;76.30
20568;DHT22;10442;49.932;11.592;2022-11-20T15:59:14;6.10;76.40
20568;DHT22;10442;49.932;11.592;2022-11-20T16:01:44;6.00;76.20
20568;DHT22;10442;49.932;11.592;2022-11-20T16:04:13;6.00;76.30
20568;DHT22;10442;49.932;11.592;2022-11-20T16:06:41;6.00;76.30
20568;DHT22;10442;49.932;11.592;2022-11-20T16:09:09;6.00;76.30
20568;DHT22;10442;49.932;11.592;2022-11-20T16:11:37;6.00;76.30
20568;DHT22;10442;49.932;11.592;2022-11-20T16:14:05;6.00;76.30
20568;DHT22;10442;49.932;11.592;2022-11-20T16:16:51;6.00;76.30
20568;DHT22;10442;49.932;11.592;2022-11-20T16:19:19;6.00;76.30
20568;DHT22;10442;49.932;11.592;2022-11-20T16:21:46;6.00;76.40
20568;DHT22;10442;49.932;11.592;2022-11-20T16:24:15;6.00;76.40
20568;DHT22;10442;49.932;11.592;2022-11-20T16:26:43;6.00;76.30
20568;DHT22;10442;49.932;11.592;2022-11-20T16:29:11;6.00;76.40
20568;DHT22;10442;49.932;11.592;2022-11-20T16:31:38;6.00;76.30
20568;DHT22;10442;49.932;11.592;2022-11-20T16:34:07;6.00;76.40
20568;DHT22;10442;49.932;11.592;2022-11-20T16:36:40;6.00;76.30
20568;DHT22;10442;49.932;11.592;2022-11-20T16:39:09;6.00;76.10
20568;DHT22;10442;49.932;11.592;2022-11-20T16:41:37;6.00;76.00
20568;DHT22;10442;49.932;11.592;2022-11-20T16:44:09;6.00;75.90
20568;DHT22;10442;49.932;11.592;2022-11-20T16:46:37;6.00;75.90
20568;DHT22;10442;49.932;11.592;2022-11-20T16:49:06;6.00;76.10
20568;DHT22;10442;49.932;11.592;2022-11-20T16:51:37;6.00;76.20
20568;DHT22;10442;49.932;11.592;2022-11-20T16:54:06;6.00;76.20
20568;DHT22;10442;49.932;11.592;2022-11-20T16:56:34;6.00;76.30
20568;DHT22;10442;49.932;11.592;2022-11-20T16:59:02;6.00;76.20
20568;DHT22;10442;49.932;11.592;2022-11-20T17:01:30;6.00;76.20
20568;DHT22;10442;49.932;11.592;2022-11-20T17:04:04;6.00;77.00
20568;DHT22;10442;49.932;11.592;2022-11-20T17:06:36;6.00;76.30
20568;DHT22;10442;49.932;11.592;2022-11-20T17:09:06;6.00;76.40
20568;DHT22;10442;49.932;11.592;2022-11-20T17:11:36;6.00;76.40
20568;DHT22;10442;49.932;11.592;2022-11-20T17:14:04;6.00;76.50
20568;DHT22;10442;49.932;11.592;2022-11-20T17:16:34;5.90;76.50
20568;DHT22;10442;49.932;11.592;2022-11-20T17:19:03;5.90;76.50
20568;DHT22;10442;49.932;11.592;2022-11-20T17:21:33;5.90;76.40
20568;DHT22;10442;49.932;11.592;2022-11-20T17:24:04;5.90;76.40
20568;DHT22;10442;49.932;11.592;2022-11-20T17:26:33;5.90;76.40
20568;DHT22;10442;49.932;11.592;2022-11-20T17:29:06;5.90;76.40
20568;DHT22;10442;49.932;11.592;2022-11-20T17:31:36;5.90;76.50
20568;DHT22;10442;49.932;11.592;2022-11-20T17:34:09;5.90;76.60
20568;DHT22;10442;49.932;11.592;2022-11-20T17:36:37;5.90;76.60
20568;DHT22;10442;49.932;11.592;2022-11-20T17:39:13;5.80;76.60
20568;DHT22;10442;49.932;11.592;2022-11-20T17:41:41;5.80;76.60
20568;DHT22;10442;49.932;11.592;2022-11-20T17:44:09;5.80;76.60
20568;DHT22;10442;49.932;11.592;2022-11-20T17:46:37;5.80;76.70